Terminal Aerodrome Forecast
Issued by NWS

Home | Current Version | Previous Version | Text Only | Print | Product List | Glossary On
Versions: 1 2 3 4 5 6 7 8 9 10 11 12 13 14 15 16 17 18
000
FTUS46 KSTO 272300
TAFSMF
TAF
KSMF 272328Z 2800/2824 VRB05KT P6SM FEW250
     FM280400 16007KT P6SM SCT250
     FM282100 20010KT P6SM FEW250=

USA.gov is the U.S. government's official web portal to all federal, state and local government web resources and services.